Time;durP1;ratioP1;P1;durP2;ratioP2;P2;SDS_P1;SDS_P2;PMS_P1;PMS_P2;Temp;Humidity;BMP_temperature;BMP_pressure;BME280_temperature;BME280_humidity;BME280_pressure;Samples;Min_cycle;Max_cycle;Signal;HPM_P1;HPM_P2
2022/08/23 00:01:29;;;;;;;11.47;3.90;;;;;;;22.48;51.27;100294.63;1744870;80;21031;-73
2022/08/23 00:04:00;;;;;;;12.73;3.63;;;;;;;22.47;51.30;100296.30;1723606;82;21153;-74
2022/08/23 00:06:28;;;;;;;10.68;3.95;;;;;;;22.44;51.38;100290.19;1703859;82;21589;-73
2022/08/23 00:08:55;;;;;;;16.30;4.40;;;;;;;22.40;51.69;100295.53;1707977;82;21113;-74
2022/08/23 00:11:37;;;;;;;10.50;3.43;;;;;;;22.36;51.63;100289.19;1743347;80;21447;-73
2022/08/23 00:14:11;;;;;;;12.53;3.57;;;;;;;22.35;51.61;100294.99;1707666;82;21023;-72
2022/08/23 00:16:39;;;;;;;13.30;3.87;;;;;;;22.30;51.72;100295.21;1739230;80;21249;-73
2022/08/23 00:19:08;;;;;;;12.57;3.97;;;;;;;22.25;51.72;100292.16;1742770;80;20979;-73
2022/08/23 00:21:36;;;;;;;11.87;4.00;;;;;;;22.24;51.68;100295.46;1743268;80;21096;-71
2022/08/23 00:24:05;;;;;;;11.83;4.30;;;;;;;22.23;51.66;100293.85;1727869;81;20969;-73
2022/08/23 00:26:54;;;;;;;14.50;4.20;;;;;;;22.22;51.56;100296.36;1723013;82;21597;-72
2022/08/23 00:29:24;;;;;;;10.13;3.57;;;;;;;22.21;51.48;100303.48;1715516;81;21158;-73
2022/08/23 00:31:51;;;;;;;11.27;3.90;;;;;;;22.17;51.37;100297.94;1729281;81;20973;-72
2022/08/23 00:34:20;;;;;;;9.67;3.30;;;;;;;22.12;51.55;100292.71;1728884;82;21151;-73
2022/08/23 00:36:48;;;;;;;10.80;3.53;;;;;;;22.08;51.47;100299.16;1726418;81;21039;-73
2022/08/23 00:39:16;;;;;;;10.40;3.30;;;;;;;22.05;51.51;100291.70;1708506;81;21539;-72
2022/08/23 00:41:44;;;;;;;11.50;3.77;;;;;;;22.02;51.67;100301.33;1726114;81;21808;-72
2022/08/23 00:49:59;;;;;;;12.37;3.93;;;;;;;21.94;51.93;100313.09;1724944;81;21082;-72
2022/08/23 00:52:36;;;;;;;7.93;3.30;;;;;;;21.92;51.84;100315.37;1707745;81;21174;-72
2022/08/23 00:55:03;;;;;;;11.00;3.67;;;;;;;21.89;51.92;100317.41;1725099;82;21194;-73
2022/08/23 00:57:30;;;;;;;9.17;3.43;;;;;;;21.87;51.76;100314.23;1721786;82;21028;-73
2022/08/23 00:59:57;;;;;;;7.07;3.20;;;;;;;21.82;51.76;100322.63;1723447;81;21502;-71
2022/08/23 01:02:23;;;;;;;9.30;3.67;;;;;;;21.82;51.74;100319.91;1720662;82;21120;-72
2022/08/23 01:04:57;;;;;;;10.60;3.30;;;;;;;21.83;51.44;100316.05;1751396;81;21010;-71
2022/08/23 01:07:38;;;;;;;11.43;3.40;;;;;;;21.83;51.42;100315.48;1717829;81;21100;-70
2022/08/23 01:10:10;;;;;;;9.33;3.30;;;;;;;21.83;51.52;100319.55;1715458;82;21111;-72
2022/08/23 01:12:42;;;;;;;13.33;3.67;;;;;;;21.84;51.07;100315.70;1756934;80;22317;-71
2022/08/23 01:15:25;;;;;;;8.50;3.30;;;;;;;21.88;51.14;100315.80;1741666;80;21491;-73
2022/08/23 01:18:02;;;;;;;11.50;3.60;;;;;;;21.90;51.16;100316.27;1710369;82;20979;-72
2022/08/23 01:20:35;;;;;;;11.00;3.20;;;;;;;21.90;50.94;100314.91;1709221;82;21276;-72
2022/08/23 01:23:22;;;;;;;11.03;3.20;;;;;;;21.89;50.85;100316.05;1722122;81;21078;-73
2022/08/23 01:25:49;;;;;;;9.53;3.57;;;;;;;21.89;50.85;100316.84;1723811;82;21083;-72
2022/08/23 01:28:15;;;;;;;9.03;3.47;;;;;;;21.89;50.83;100318.77;1691755;82;21064;-72
2022/08/23 01:30:42;;;;;;;8.17;3.50;;;;;;;21.89;50.65;100319.56;1719193;82;20948;-72
2022/08/23 01:33:09;;;;;;;8.57;3.10;;;;;;;21.90;50.70;100317.06;1721544;81;21918;-72
2022/08/23 01:35:42;;;;;;;11.37;3.30;;;;;;;21.90;50.59;100322.50;1723252;81;21041;-72
2022/08/23 01:38:09;;;;;;;11.50;3.43;;;;;;;21.90;50.33;100317.63;1722132;81;21190;-73
2022/08/23 01:40:36;;;;;;;8.27;3.20;;;;;;;21.91;50.30;100320.57;1724096;81;21016;-70
2022/08/23 01:43:04;;;;;;;9.50;3.00;;;;;;;21.94;50.28;100323.97;1723958;81;20989;-70
2022/08/23 01:45:32;;;;;;;10.70;3.70;;;;;;;21.95;50.01;100331.02;1722609;81;21165;-72
2022/08/23 01:47:59;;;;;;;10.23;3.87;;;;;;;21.94;50.08;100330.20;1720934;81;21086;-72
2022/08/23 01:50:27;;;;;;;8.53;3.63;;;;;;;21.91;50.15;100332.81;1723198;81;21083;-71
2022/08/23 01:52:54;;;;;;;8.57;3.40;;;;;;;21.88;49.95;100329.41;1721164;81;21086;-72
2022/08/23 01:55:22;;;;;;;10.97;3.40;;;;;;;21.86;50.01;100336.55;1723571;81;21024;-72
2022/08/23 01:57:54;;;;;;;7.63;3.43;;;;;;;21.85;50.00;100335.52;1721129;81;21315;-72
2022/08/23 02:00:25;;;;;;;7.50;3.30;;;;;;;21.86;49.91;100332.47;1723946;81;21075;-71
2022/08/23 02:02:52;;;;;;;8.90;3.17;;;;;;;21.84;49.91;100339.38;1723848;82;20989;-72
2022/08/23 02:05:19;;;;;;;7.67;3.00;;;;;;;21.84;49.79;100333.37;1723115;81;20962;-71
2022/08/23 02:07:47;;;;;;;11.57;2.97;;;;;;;21.82;49.61;100337.01;1724275;81;22360;-72
2022/08/23 02:10:14;;;;;;;9.17;3.40;;;;;;;21.82;49.73;100333.50;1723575;81;21090;-69
2022/08/23 02:12:40;;;;;;;10.27;3.30;;;;;;;21.81;49.66;100330.53;1722612;81;21497;-70
2022/08/23 02:15:17;;;;;;;9.57;3.40;;;;;;;21.82;49.76;100336.22;1722193;82;21012;-70
2022/08/23 02:17:46;;;;;;;9.83;3.27;;;;;;;21.80;49.43;100337.90;1723783;81;21083;-71
2022/08/23 02:20:13;;;;;;;10.73;3.70;;;;;;;21.79;49.20;100341.76;1724093;81;21122;-72
2022/08/23 02:22:39;;;;;;;7.80;3.40;;;;;;;21.78;49.14;100334.72;1723372;81;21785;-72
2022/08/23 02:25:07;;;;;;;9.43;3.07;;;;;;;21.77;49.02;100337.22;1723044;81;21063;-72
2022/08/23 02:27:35;;;;;;;6.90;3.53;;;;;;;21.75;49.16;100333.48;1723966;82;21111;-72
2022/08/23 02:30:02;;;;;;;10.57;3.63;;;;;;;21.73;49.32;100340.39;1722815;81;21075;-72
2022/08/23 02:32:29;;;;;;;15.80;3.33;;;;;;;21.72;49.19;100339.59;1721940;81;21110;-72
2022/08/23 02:34:56;;;;;;;8.43;3.10;;;;;;;21.70;49.17;100337.77;1724573;81;21140;-72
2022/08/23 02:37:23;;;;;;;8.27;3.37;;;;;;;21.71;49.33;100335.84;1722053;81;21657;-74
2022/08/23 02:39:50;;;;;;;7.87;3.07;;;;;;;21.68;49.53;100341.38;1726723;82;20984;-72
2022/08/23 02:42:17;;;;;;;8.20;2.87;;;;;;;21.66;49.50;100342.88;1729126;81;20999;-72
2022/08/23 02:44:44;;;;;;;9.20;3.30;;;;;;;21.67;49.59;100341.73;1728333;81;21483;-71
2022/08/23 02:47:11;;;;;;;7.60;2.90;;;;;;;21.63;49.50;100347.05;1727222;81;22150;-70
2022/08/23 02:49:40;;;;;;;10.97;3.80;;;;;;;21.60;49.36;100349.08;1727463;82;21041;-70
2022/08/23 02:52:07;;;;;;;10.37;3.07;;;;;;;21.59;49.23;100344.78;1724115;81;21563;-71
2022/08/23 02:54:35;;;;;;;11.20;3.47;;;;;;;21.59;49.21;100348.86;1723072;81;21074;-70
2022/08/23 02:57:01;;;;;;;7.17;3.10;;;;;;;21.59;49.29;100353.50;1723386;81;21114;-71
2022/08/23 02:59:28;;;;;;;10.43;3.17;;;;;;;21.58;49.27;100354.05;1712587;82;22072;-73
2022/08/23 03:01:56;;;;;;;7.87;3.50;;;;;;;21.58;49.21;100354.61;1724259;81;21071;-71
2022/08/23 03:04:27;;;;;;;12.65;3.17;;;;;;;21.57;49.20;100355.19;1705358;83;21020;-71
2022/08/23 03:06:54;;;;;;;13.20;3.40;;;;;;;21.57;49.30;100359.26;1698523;83;21008;-70
2022/08/23 03:09:21;;;;;;;13.93;3.53;;;;;;;21.53;49.30;100364.57;1707757;83;21114;-71
2022/08/23 03:11:48;;;;;;;7.77;3.00;;;;;;;21.52;49.37;100364.92;1724103;81;21071;-70
2022/08/23 03:14:16;;;;;;;11.37;3.67;;;;;;;21.52;49.25;100373.08;1732453;80;21020;-71
2022/08/23 03:16:45;;;;;;;8.50;3.30;;;;;;;21.52;49.27;100371.72;1722668;81;21461;-72
2022/08/23 03:19:12;;;;;;;8.83;3.27;;;;;;;21.53;49.14;100365.14;1721214;81;21068;-72
2022/08/23 03:21:41;;;;;;;9.53;3.00;;;;;;;21.54;49.18;100370.23;1720910;82;20992;-73
2022/08/23 03:24:08;;;;;;;11.40;3.40;;;;;;;21.55;49.06;100373.73;1728544;81;21139;-72
2022/08/23 03:26:35;;;;;;;8.13;3.13;;;;;;;21.57;48.99;100376.13;1726826;81;21083;-71
2022/08/23 03:29:02;;;;;;;7.23;3.30;;;;;;;21.61;49.13;100379.77;1723246;81;21055;-73
2022/08/23 03:31:31;;;;;;;7.77;3.40;;;;;;;21.63;49.05;100382.95;1723839;82;20983;-70
2022/08/23 03:34:00;;;;;;;12.53;3.27;;;;;;;21.63;49.04;100384.31;1721688;83;21570;-69
2022/08/23 03:36:26;;;;;;;10.90;3.67;;;;;;;21.67;49.14;100385.22;1723451;81;21149;-70
2022/08/23 03:38:53;;;;;;;9.77;3.40;;;;;;;21.68;49.11;100375.92;1703358;82;21126;-71
2022/08/23 03:41:20;;;;;;;7.03;2.87;;;;;;;21.70;48.90;100386.70;1691487;82;21073;-71
2022/08/23 03:43:46;;;;;;;12.57;3.33;;;;;;;21.75;49.02;100386.50;1723076;81;21110;-70
2022/08/23 03:46:22;;;;;;;10.00;3.17;;;;;;;21.79;48.79;100390.70;1721254;81;21071;-71
2022/08/23 03:48:58;;;;;;;8.73;3.33;;;;;;;21.83;48.55;100392.96;1722937;81;21144;-71
2022/08/23 03:51:25;;;;;;;7.47;3.27;;;;;;;21.89;48.45;100392.19;1720096;80;21005;-72
2022/08/23 03:53:53;;;;;;;9.83;3.27;;;;;;;21.95;48.48;100397.64;1726687;81;20988;-70
2022/08/23 03:56:26;;;;;;;15.83;4.03;;;;;;;22.03;48.49;100403.53;1726468;82;21121;-72
2022/08/23 03:58:55;;;;;;;10.73;3.37;;;;;;;22.10;48.42;100409.20;1723397;81;21611;-71
2022/08/23 04:01:22;;;;;;;11.93;3.33;;;;;;;22.17;48.30;100407.31;1724665;81;21196;-73
2022/08/23 04:03:49;;;;;;;9.40;3.40;;;;;;;22.24;48.02;100411.09;1723222;82;21023;-71
2022/08/23 04:06:16;;;;;;;13.70;4.00;;;;;;;22.33;48.09;100410.17;1723561;81;21031;-72
2022/08/23 04:08:44;;;;;;;9.93;3.27;;;;;;;22.39;47.77;100412.89;1722780;81;20980;-72
2022/08/23 04:11:13;;;;;;;9.50;3.00;;;;;;;22.49;47.50;100420.61;1720260;81;21077;-70
2022/08/23 04:13:42;;;;;;;7.93;3.07;;;;;;;22.56;47.29;100416.73;1716107;81;21242;-71
2022/08/23 04:16:10;;;;;;;11.50;3.73;;;;;;;22.65;47.29;100416.63;1722675;81;21419;-72
2022/08/23 04:18:37;;;;;;;9.47;3.47;;;;;;;22.73;47.26;100414.91;1721510;81;21052;-71
2022/08/23 04:21:09;;;;;;;11.57;3.60;;;;;;;22.78;47.22;100418.78;1725929;81;21558;-73
2022/08/23 04:23:38;;;;;;;9.95;3.30;;;;;;;22.83;47.15;100422.04;1727796;81;21693;-70
2022/08/23 04:26:08;;;;;;;8.43;3.23;;;;;;;22.88;47.11;100423.75;1700667;82;21863;-72
2022/08/23 04:28:35;;;;;;;11.20;3.30;;;;;;;22.92;47.09;100429.52;1723389;81;21553;-73
2022/08/23 04:31:03;;;;;;;10.83;3.70;;;;;;;22.91;46.96;100429.30;1723132;81;21553;-71
2022/08/23 04:33:31;;;;;;;13.93;3.70;;;;;;;22.93;46.52;100426.25;1724515;81;20984;-70
2022/08/23 04:35:59;;;;;;;9.77;3.63;;;;;;;22.95;46.52;100433.52;1721517;81;21025;-72
2022/08/23 04:38:27;;;;;;;9.50;3.37;;;;;;;22.93;46.66;100426.25;1723736;81;21503;-71
2022/08/23 04:43:42;;;;;;;11.20;3.30;;;;;;;22.94;46.57;100435.45;1723003;82;21020;-70
2022/08/23 04:46:14;;;;;;;13.07;3.77;;;;;;;22.96;46.68;100440.55;1724781;81;21067;-71
2022/08/23 04:48:40;;;;;;;19.97;4.30;;;;;;;22.98;46.64;100434.77;1721702;82;20965;-71
2022/08/23 04:51:07;;;;;;;11.80;3.70;;;;;;;23.01;46.50;100434.88;1725279;81;21212;-70
2022/08/23 04:53:35;;;;;;;13.53;4.00;;;;;;;23.07;46.60;100433.51;1721877;81;21522;-70
2022/08/23 04:56:05;;;;;;;16.80;3.80;;;;;;;23.12;46.33;100436.55;1719494;81;21113;-72
2022/08/23 04:58:32;;;;;;;15.03;4.00;;;;;;;23.17;45.78;100442.56;1724741;82;21475;-71
2022/08/23 05:01:00;;;;;;;14.23;4.40;;;;;;;23.24;45.81;100438.46;1722841;81;20961;-71
2022/08/23 05:03:28;;;;;;;15.67;3.93;;;;;;;23.28;45.19;100448.31;1720381;82;21139;-72
2022/08/23 05:05:56;;;;;;;11.80;4.03;;;;;;;23.36;45.43;100448.76;1724047;81;21166;-72
2022/08/23 05:08:25;;;;;;;14.47;4.10;;;;;;;23.46;45.33;100450.75;1724198;81;21058;-72
2022/08/23 05:10:52;;;;;;;12.57;4.07;;;;;;;23.55;45.26;100454.13;1723655;81;21016;-70
2022/08/23 05:13:19;;;;;;;11.90;3.67;;;;;;;23.64;44.58;100457.50;1716763;82;21078;-73
2022/08/23 05:15:46;;;;;;;21.80;4.67;;;;;;;23.70;44.27;100455.36;1720132;81;21230;-72
2022/08/23 05:18:13;;;;;;;18.10;4.50;;;;;;;23.74;44.09;100449.42;1697572;82;21637;-74
2022/08/23 05:20:40;;;;;;;18.83;4.30;;;;;;;23.81;44.00;100455.85;1723939;81;21097;-70
2022/08/23 05:23:08;;;;;;;18.23;4.27;;;;;;;23.89;44.36;100456.86;1723577;82;21063;-71
2022/08/23 05:25:48;;;;;;;17.53;4.00;;;;;;;23.95;44.19;100455.43;1720886;81;21015;-72
2022/08/23 05:28:24;;;;;;;25.40;5.20;;;;;;;24.03;44.25;100463.25;1709310;81;21646;-72
2022/08/23 05:31:02;;;;;;;20.80;4.93;;;;;;;24.08;43.76;100461.61;1722652;81;21051;-71
2022/08/23 05:33:32;;;;;;;20.97;4.93;;;;;;;24.14;43.54;100466.25;1719729;81;21093;-72
2022/08/23 05:35:58;;;;;;;22.67;4.77;;;;;;;24.19;43.56;100470.09;1730107;82;21111;-70
2022/08/23 05:38:25;;;;;;;24.23;4.90;;;;;;;24.20;43.69;100462.12;1730395;81;21035;-73
2022/08/23 05:40:56;;;;;;;17.80;4.20;;;;;;;24.24;43.72;100458.91;1722107;81;21557;-73
2022/08/23 05:43:24;;;;;;;19.83;4.70;;;;;;;24.30;43.54;100468.42;1722860;81;21078;-71
2022/08/23 05:46:13;;;;;;;20.73;5.30;;;;;;;24.34;43.27;100471.45;1726809;81;21000;-71
2022/08/23 05:48:40;;;;;;;21.23;5.67;;;;;;;24.39;43.10;100475.08;1724318;82;21106;-72
2022/08/23 05:51:15;;;;;;;27.27;4.90;;;;;;;24.46;43.14;100473.91;1723877;81;21141;-72
2022/08/23 05:53:42;;;;;;;22.97;5.40;;;;;;;24.55;43.15;100485.45;1720457;82;21525;-73
2022/08/23 05:56:16;;;;;;;23.80;5.13;;;;;;;24.64;42.87;100480.58;1723290;83;21146;-71
2022/08/23 05:58:43;;;;;;;24.77;5.20;;;;;;;24.72;42.28;100478.25;1728697;82;21183;-70
2022/08/23 06:01:10;;;;;;;23.43;5.70;;;;;;;24.82;42.29;100485.69;1721319;82;21194;-70
2022/08/23 06:03:37;;;;;;;22.27;5.70;;;;;;;24.93;41.71;100479.89;1727292;81;21067;-71
2022/08/23 06:06:05;;;;;;;30.73;5.80;;;;;;;25.10;42.27;100486.31;1723285;81;21153;-69
2022/08/23 06:08:33;;;;;;;23.50;6.27;;;;;;;25.26;40.82;100482.98;1721493;81;21087;-72
2022/08/23 06:11:10;;;;;;;25.20;5.33;;;;;;;25.47;41.20;100487.34;1719096;81;21010;-71
2022/08/23 06:13:45;;;;;;;25.17;5.77;;;;;;;25.66;40.77;100488.69;1719998;81;22566;-70
2022/08/23 06:16:13;;;;;;;19.77;6.07;;;;;;;25.87;39.64;100494.41;1723391;81;21124;-70
2022/08/23 06:18:40;;;;;;;24.50;5.70;;;;;;;26.04;39.44;100501.36;1720093;82;21190;-75
2022/08/23 06:21:22;;;;;;;26.73;5.67;;;;;;;26.19;39.07;100503.18;1691971;83;21573;-71
2022/08/23 06:23:50;;;;;;;34.17;6.47;;;;;;;26.40;39.18;100501.41;1742809;80;20995;-72
2022/08/23 06:26:20;;;;;;;33.50;6.67;;;;;;;26.59;39.56;100506.84;1723422;82;21051;-70
2022/08/23 06:28:49;;;;;;;44.87;8.67;;;;;;;26.75;39.07;100505.34;1721529;82;21058;-71
2022/08/23 06:31:43;;;;;;;25.63;6.53;;;;;;;26.89;38.43;100521.99;1724027;82;21135;-71
2022/08/23 06:33:47;;;;;;;34.03;6.75;;;;;;;27.00;37.11;100524.10;1719646;81;24769;-72
2022/08/23 06:36:25;;;;;;;34.50;6.73;;;;;;;27.08;37.24;100524.40;1703613;82;21632;-69
2022/08/23 06:38:56;;;;;;;32.58;6.67;;;;;;;27.18;37.73;100527.11;1721923;81;21072;-70
2022/08/23 06:41:41;;;;;;;29.53;5.40;;;;;;;27.32;37.80;100529.48;1731005;81;21099;-74
2022/08/23 06:44:14;;;;;;;31.80;6.33;;;;;;;27.49;37.22;100532.84;1719126;82;21595;-72
2022/08/23 06:46:48;;;;;;;35.83;6.17;;;;;;;27.59;36.95;100540.41;1733049;82;20967;-70
2022/08/23 06:49:15;;;;;;;27.70;6.23;;;;;;;27.65;36.27;100536.77;1734235;81;21059;-70
2022/08/23 06:51:45;;;;;;;25.87;6.47;;;;;;;27.73;36.25;100535.67;1722969;81;21088;-70
2022/08/23 06:54:19;;;;;;;39.83;7.57;;;;;;;27.79;35.53;100544.60;1724377;81;21718;-71
2022/08/23 06:56:48;;;;;;;35.88;6.97;;;;;;;27.78;35.60;100540.28;1658494;83;21165;-70
2022/08/23 06:59:17;;;;;;;38.53;7.40;;;;;;;27.84;36.19;100542.13;1737656;80;21554;-72
2022/08/23 07:02:01;;;;;;;30.97;5.92;;;;;;;27.91;35.50;100540.83;1693758;83;21225;-72
2022/08/23 07:04:42;;;;;;;39.53;7.10;;;;;;;27.99;35.63;100543.05;1715085;82;21139;-73
2022/08/23 07:07:23;;;;;;;43.87;7.75;;;;;;;28.09;35.51;100546.50;1673625;82;21624;-72
2022/08/23 07:09:51;;;;;;;25.47;6.17;;;;;;;28.17;35.40;100546.80;1723712;83;21253;-73
2022/08/23 07:12:19;;;;;;;34.03;6.87;;;;;;;28.31;35.50;100552.22;1690186;82;21011;-73
2022/08/23 07:14:46;;;;;;;32.17;6.80;;;;;;;28.43;35.54;100556.89;1723909;82;20964;-73
2022/08/23 07:17:13;;;;;;;38.30;6.97;;;;;;;28.57;35.52;100558.19;1719815;81;21185;-71
2022/08/23 07:19:42;;;;;;;47.57;9.37;;;;;;;28.68;34.98;100557.09;1723555;81;21139;-71
2022/08/23 07:22:11;;;;;;;42.90;7.70;;;;;;;28.78;35.19;100561.09;1723396;81;21579;-72
2022/08/23 07:24:38;;;;;;;50.30;10.07;;;;;;;28.87;34.82;100564.31;1724678;83;21075;-72
2022/08/23 07:27:08;;;;;;;39.07;7.60;;;;;;;28.97;35.41;100560.06;1722751;82;21474;-71
2022/08/23 07:29:38;;;;;;;35.03;7.07;;;;;;;29.09;35.08;100563.91;1720996;83;21106;-72
2022/08/23 07:32:05;;;;;;;41.10;8.50;;;;;;;29.17;34.96;100560.02;1722842;82;21037;-74
2022/08/23 07:34:33;;;;;;;33.47;6.17;;;;;;;29.26;35.06;100565.20;1703638;83;21806;-71
2022/08/23 07:37:00;;;;;;;36.27;6.80;;;;;;;29.36;34.68;100563.09;1724729;83;21624;-73
2022/08/23 07:39:28;;;;;;;34.47;6.83;;;;;;;29.46;34.04;100567.07;1725019;81;21062;-73
2022/08/23 07:41:57;;;;;;;36.33;6.87;;;;;;;29.48;34.39;100566.67;1723981;81;21063;-72
2022/08/23 07:44:24;;;;;;;38.90;7.43;;;;;;;29.50;33.62;100572.59;1660922;83;21118;-71
2022/08/23 07:46:50;;;;;;;49.73;9.00;;;;;;;29.54;33.75;100570.64;1710069;81;21262;-73
2022/08/23 07:49:17;;;;;;;44.83;8.70;;;;;;;29.54;33.25;100561.00;1702960;80;21055;-70
2022/08/23 07:51:48;;;;;;;42.23;7.73;;;;;;;29.56;33.63;100569.08;1723556;81;21134;-72
2022/08/23 07:54:15;;;;;;;42.17;8.43;;;;;;;29.61;33.62;100570.11;1724096;82;21062;-71
2022/08/23 07:56:47;;;;;;;36.93;8.07;;;;;;;29.68;34.04;100568.78;1737444;81;21031;-71
2022/08/23 07:59:19;;;;;;;31.80;6.60;;;;;;;29.67;33.38;100575.45;1730944;82;21536;-70
2022/08/23 08:01:50;;;;;;;35.65;7.92;;;;;;;29.65;33.56;100573.69;1727526;82;21671;-72
2022/08/23 08:04:18;;;;;;;37.97;8.53;;;;;;;29.61;32.84;100567.94;1730484;82;21063;-71
2022/08/23 08:06:48;;;;;;;42.63;7.70;;;;;;;29.55;33.25;100566.14;1723613;83;21060;-71
2022/08/23 08:09:18;;;;;;;39.37;8.43;;;;;;;29.56;33.26;100571.05;1722095;83;21160;-72
2022/08/23 08:11:46;;;;;;;42.27;8.27;;;;;;;29.59;33.04;100568.91;1725984;83;21231;-73
2022/08/23 08:14:14;;;;;;;39.47;7.40;;;;;;;29.65;33.09;100565.42;1723864;83;21072;-73
2022/08/23 08:16:47;;;;;;;38.00;7.10;;;;;;;29.80;33.18;100570.98;1723476;82;21073;-72
2022/08/23 08:19:16;;;;;;;31.33;7.00;;;;;;;29.96;32.80;100578.31;1723580;82;21550;-71
2022/08/23 08:21:59;;;;;;;33.43;7.37;;;;;;;30.12;32.89;100574.62;1696564;84;21312;-72
2022/08/23 08:24:37;;;;;;;36.23;7.70;;;;;;;30.28;32.40;100577.05;1704085;82;21253;-72
2022/08/23 08:27:05;;;;;;;39.57;7.90;;;;;;;30.32;31.45;100575.08;1723548;82;21028;-72
2022/08/23 08:29:33;;;;;;;34.00;7.40;;;;;;;30.33;30.91;100575.27;1723834;83;21008;-73
2022/08/23 08:32:01;;;;;;;35.73;7.70;;;;;;;30.44;31.80;100576.69;1723461;83;21549;-72
2022/08/23 08:34:28;;;;;;;33.83;7.43;;;;;;;30.59;31.47;100582.98;1724527;83;21125;-71
2022/08/23 08:36:57;;;;;;;27.67;6.23;;;;;;;30.71;31.38;100585.36;1724641;83;21144;-73
2022/08/23 08:39:28;;;;;;;37.43;8.00;;;;;;;30.70;31.44;100585.73;1726315;83;21588;-71
2022/08/23 08:42:22;;;;;;;33.17;7.00;;;;;;;30.62;31.38;100594.61;1730616;83;21091;-71
2022/08/23 08:44:59;;;;;;;25.10;6.07;;;;;;;30.52;31.81;100590.66;1723567;82;21028;-71
2022/08/23 08:47:55;;;;;;;29.30;6.70;;;;;;;30.37;31.35;100595.38;1722411;83;21015;-72
2022/08/23 08:50:36;;;;;;;30.03;6.50;;;;;;;30.21;31.47;100598.27;1732902;82;21250;-71
2022/08/23 08:53:37;;;;;;;31.93;5.87;;;;;;;30.14;31.86;100597.63;1733758;82;21590;-72
2022/08/23 08:56:21;;;;;;;35.37;7.63;;;;;;;30.12;31.67;100591.15;1738559;82;21160;-70
2022/08/23 08:58:57;;;;;;;33.70;6.27;;;;;;;30.21;31.32;100594.95;1736039;82;21180;-72
2022/08/23 09:01:25;;;;;;;33.20;6.80;;;;;;;30.42;30.85;100592.81;1726687;82;21027;-71
2022/08/23 09:03:54;;;;;;;17.30;5.47;;;;;;;30.66;30.54;100584.95;1720957;83;21103;-73
2022/08/23 09:06:25;;;;;;;26.50;5.47;;;;;;;30.90;30.37;100591.11;1724406;83;20969;-71
2022/08/23 09:09:00;;;;;;;34.37;7.30;;;;;;;31.07;29.63;100588.13;1724478;82;21090;-72
2022/08/23 09:11:49;;;;;;;31.30;7.13;;;;;;;31.14;30.34;100591.47;1721438;83;21007;-71
2022/08/23 09:14:27;;;;;;;28.07;6.60;;;;;;;31.23;30.70;100594.62;1724132;83;21083;-72
2022/08/23 09:17:09;;;;;;;26.03;5.90;;;;;;;31.36;30.27;100592.23;1722917;83;21273;-73
2022/08/23 09:19:49;;;;;;;29.67;5.93;;;;;;;31.41;29.94;100594.00;1727992;82;21087;-72
2022/08/23 09:22:39;;;;;;;22.77;5.67;;;;;;;31.46;30.63;100596.95;1729052;82;21051;-71
2022/08/23 09:25:10;;;;;;;24.70;6.10;;;;;;;31.47;29.45;100595.16;1727139;82;21071;-71
2022/08/23 09:27:43;;;;;;;20.67;5.23;;;;;;;31.40;30.31;100595.19;1729490;82;20996;-72
2022/08/23 09:30:13;;;;;;;23.77;5.33;;;;;;;31.39;30.14;100597.77;1710984;82;21304;-72
2022/08/23 09:32:54;;;;;;;29.20;5.13;;;;;;;31.42;30.41;100595.56;1730061;82;21683;-70
2022/08/23 09:35:24;;;;;;;19.70;4.57;;;;;;;31.52;29.46;100592.58;1727894;80;21019;-72
2022/08/23 09:38:23;;;;;;;19.57;4.77;;;;;;;31.69;28.55;100595.10;1730494;82;21530;-71
2022/08/23 09:41:00;;;;;;;25.90;4.87;;;;;;;31.68;27.96;100600.41;1710324;82;21154;-71
2022/08/23 09:43:30;;;;;;;21.70;5.28;;;;;;;31.61;28.55;100589.40;1722590;82;21266;-73
2022/08/23 09:46:02;;;;;;;20.80;4.65;;;;;;;31.58;28.57;100587.44;1730052;82;21070;-70
2022/08/23 09:48:41;;;;;;;22.23;5.00;;;;;;;31.56;28.73;100589.23;1728621;82;21515;-72
2022/08/23 09:51:28;;;;;;;16.83;3.97;;;;;;;31.67;28.74;100582.28;1699926;83;22165;-72
2022/08/23 09:54:06;;;;;;;16.03;3.80;;;;;;;31.94;28.62;100573.69;1703073;83;21020;-72
2022/08/23 09:56:47;;;;;;;17.63;3.47;;;;;;;32.28;28.12;100575.07;1682943;85;21545;-72
2022/08/23 09:59:36;;;;;;;16.03;3.67;;;;;;;32.49;25.20;100578.33;1705514;83;21048;-71
2022/08/23 10:02:19;;;;;;;13.47;2.80;;;;;;;32.46;24.51;100580.70;1700682;84;20976;-72
2022/08/23 10:05:03;;;;;;;12.20;2.95;;;;;;;32.36;24.57;100585.69;1708444;82;21039;-70
2022/08/23 10:07:42;;;;;;;11.53;2.93;;;;;;;32.12;23.95;100579.13;1730812;82;20992;-72
2022/08/23 10:10:42;;;;;;;9.90;2.53;;;;;;;31.85;24.68;100589.09;1730679;83;21109;-72
2022/08/23 10:13:10;;;;;;;11.80;2.50;;;;;;;31.72;24.90;100590.13;1730803;82;20965;-73
2022/08/23 10:16:24;;;;;;;9.73;2.70;;;;;;;31.59;25.66;100591.77;1731293;82;21016;-73
2022/08/23 10:19:22;;;;;;;12.20;2.90;;;;;;;31.51;25.90;100589.03;1730217;82;20973;-72
2022/08/23 10:22:26;;;;;;;10.67;2.93;;;;;;;31.45;26.60;100590.63;1730717;82;20952;-72
2022/08/23 10:25:41;;;;;;;9.50;2.83;;;;;;;31.50;26.62;100583.33;1729333;82;21143;-73
2022/08/23 10:32:00;;;;;;;11.13;2.80;;;;;;;32.11;24.65;100578.92;1745729;81;21027;-73
2022/08/23 10:34:51;;;;;;;7.77;2.60;;;;;;;32.44;23.38;100584.45;1732044;82;20984;-72
2022/08/23 10:37:26;;;;;;;10.67;2.83;;;;;;;32.69;23.94;100589.02;1730989;82;21067;-72
2022/08/23 10:40:33;;;;;;;10.90;2.60;;;;;;;32.90;23.30;100584.67;1737758;81;21225;-73
2022/08/23 10:43:35;;;;;;;11.57;3.07;;;;;;;32.95;22.44;100590.98;1738644;82;20988;-72
2022/08/23 10:46:13;;;;;;;8.97;2.50;;;;;;;32.72;22.41;100593.75;1738681;82;21606;-71
2022/08/23 10:48:57;;;;;;;8.30;2.70;;;;;;;32.48;22.68;100583.64;1733931;82;21087;-71
2022/08/23 10:51:37;;;;;;;11.10;2.60;;;;;;;32.19;22.74;100589.36;1730370;83;20996;-70
2022/08/23 10:54:14;;;;;;;7.70;2.37;;;;;;;31.91;22.99;100583.38;1709538;83;21248;-70
2022/08/23 10:56:44;;;;;;;12.35;2.58;;;;;;;31.65;22.81;100584.64;1730553;82;20941;-71
2022/08/23 10:59:22;;;;;;;9.98;2.40;;;;;;;31.49;22.87;100591.42;1706648;82;29434;-72
2022/08/23 11:02:23;;;;;;;11.50;2.40;;;;;;;31.40;22.82;100580.01;1706640;82;21525;-71
2022/08/23 11:05:06;;;;;;;9.27;2.40;;;;;;;31.36;22.79;100584.76;1690938;82;20945;-73
2022/08/23 11:07:37;;;;;;;7.90;2.10;;;;;;;31.40;23.25;100587.50;1714718;82;21268;-71
2022/08/23 11:10:35;;;;;;;9.27;2.60;;;;;;;31.54;23.37;100581.93;1731580;82;21416;-72
2022/08/23 11:13:16;;;;;;;6.90;2.10;;;;;;;31.74;23.69;100583.03;1730473;83;21016;-71
2022/08/23 11:16:16;;;;;;;8.13;2.60;;;;;;;32.02;24.51;100586.89;1716001;83;20968;-74
2022/08/23 11:18:47;;;;;;;9.15;2.30;;;;;;;32.30;23.62;100580.39;1736440;82;21383;-73
2022/08/23 11:21:32;;;;;;;6.23;2.20;;;;;;;32.57;22.99;100582.59;1715926;82;21120;-71
2022/08/23 11:24:06;;;;;;;12.87;2.40;;;;;;;32.87;22.82;100581.38;1746945;81;21100;-72
2022/08/23 11:26:46;;;;;;;7.12;2.02;;;;;;;33.23;22.08;100569.17;1735463;82;20972;-72
2022/08/23 11:29:26;;;;;;;8.63;2.53;;;;;;;33.53;21.62;100576.77;1730560;83;21020;-72
2022/08/23 11:32:12;;;;;;;7.37;2.20;;;;;;;33.79;21.62;100567.73;1729769;82;21083;-71
2022/08/23 11:35:04;;;;;;;8.78;2.17;;;;;;;34.00;21.08;100571.43;1719898;83;21244;-72
2022/08/23 11:37:56;;;;;;;7.87;2.27;;;;;;;34.14;21.37;100566.31;1715820;82;21067;-72
2022/08/23 11:40:55;;;;;;;11.90;2.50;;;;;;;34.26;21.18;100573.45;1723530;83;20984;-71
2022/08/23 11:43:32;;;;;;;11.43;2.35;;;;;;;34.39;21.35;100574.23;1732126;81;21086;-74
2022/08/23 11:46:25;;;;;;;10.50;2.10;;;;;;;34.52;21.34;100573.27;1724631;82;21090;-71
2022/08/23 11:49:31;;;;;;;10.53;2.33;;;;;;;34.63;20.72;100573.70;1714735;82;21084;-72
2022/08/23 11:52:21;;;;;;;8.15;2.33;;;;;;;34.69;20.50;100574.18;1704627;83;21008;-71
2022/08/23 11:55:25;;;;;;;7.53;2.02;;;;;;;34.76;20.78;100571.28;1726731;82;21087;-72
2022/08/23 11:58:28;;;;;;;8.00;2.00;;;;;;;34.82;20.79;100566.03;1729752;82;20975;-71
2022/08/23 12:01:08;;;;;;;6.70;1.90;;;;;;;34.92;20.34;100562.89;1731727;82;21004;-72